sensor_id;sensor_type;location;lat;lon;timestamp;pressure;altitude;pressure_sealevel;temperature;humidity
73941;BME280;62294;48.554;10.202;2024-03-23T00:53:07;100096.75;;;4.49;100.00
73941;BME280;62294;48.554;10.202;2024-03-23T00:55:33;100368.41;;;5.60;100.00
73941;BME280;62294;48.554;10.202;2024-03-23T00:57:59;100445.84;;;6.24;100.00
73941;BME280;62294;48.554;10.202;2024-03-23T01:00:25;100349.50;;;6.30;100.00
73941;BME280;62294;48.554;10.202;2024-03-23T01:02:50;100250.81;;;6.31;100.00
73941;BME280;62294;48.554;10.202;2024-03-23T01:05:16;100128.53;;;6.29;100.00
73941;BME280;62294;48.554;10.202;2024-03-23T01:07:42;100030.31;;;6.36;100.00
73941;BME280;62294;48.554;10.202;2024-03-23T01:10:07;99913.28;;;6.34;100.00
73941;BME280;62294;48.554;10.202;2024-03-23T01:12:33;99786.56;;;6.33;100.00
73941;BME280;62294;48.554;10.202;2024-03-23T01:14:59;99667.38;;;6.37;100.00
73941;BME280;62294;48.554;10.202;2024-03-23T01:17:24;99544.47;;;6.32;100.00
73941;BME280;62294;48.554;10.202;2024-03-23T01:19:50;99417.44;;;6.35;100.00
73941;BME280;62294;48.554;10.202;2024-03-23T01:22:16;99298.91;;;6.30;100.00
73941;BME280;62294;48.554;10.202;2024-03-23T01:24:41;99202.50;;;6.25;100.00
73941;BME280;62294;48.554;10.202;2024-03-23T01:27:08;99108.97;;;6.27;100.00
73941;BME280;62294;48.554;10.202;2024-03-23T01:29:33;98989.84;;;6.30;100.00
73941;BME280;62294;48.554;10.202;2024-03-23T01:31:59;98890.09;;;6.34;100.00
73941;BME280;62294;48.554;10.202;2024-03-23T01:34:25;98795.44;;;6.39;100.00
73941;BME280;62294;48.554;10.202;2024-03-23T01:36:51;98666.75;;;6.41;100.00
73941;BME280;62294;48.554;10.202;2024-03-23T01:39:16;98552.72;;;6.36;100.00
73941;BME280;62294;48.554;10.202;2024-03-23T01:41:42;98460.97;;;6.38;100.00
73941;BME280;62294;48.554;10.202;2024-03-23T01:44:09;98344.91;;;6.36;100.00
73941;BME280;62294;48.554;10.202;2024-03-23T01:46:36;98241.06;;;6.36;100.00
73941;BME280;62294;48.554;10.202;2024-03-23T01:49:05;98150.69;;;6.42;100.00
73941;BME280;62294;48.554;10.202;2024-03-23T01:51:32;98058.91;;;6.54;100.00
73941;BME280;62294;48.554;10.202;2024-03-23T01:53:58;97949.47;;;6.56;100.00
73941;BME280;62294;48.554;10.202;2024-03-23T01:56:28;97805.53;;;6.60;100.00
73941;BME280;62294;48.554;10.202;2024-03-23T01:58:55;97620.91;;;6.57;100.00
73941;BME280;62294;48.554;10.202;2024-03-23T02:01:21;97442.75;;;6.52;100.00
73941;BME280;62294;48.554;10.202;2024-03-23T02:03:47;97262.00;;;6.38;100.00
73941;BME280;62294;48.554;10.202;2024-03-23T02:06:12;97099.13;;;6.14;100.00
73941;BME280;62294;48.554;10.202;2024-03-23T02:08:39;96981.22;;;6.07;100.00
73941;BME280;62294;48.554;10.202;2024-03-23T02:11:05;96889.50;;;6.09;100.00
73941;BME280;62294;48.554;10.202;2024-03-23T02:13:30;96846.28;;;6.10;100.00
73941;BME280;62294;48.554;10.202;2024-03-23T02:15:57;96813.66;;;6.03;100.00
73941;BME280;62294;48.554;10.202;2024-03-23T02:18:23;96820.19;;;6.15;100.00
73941;BME280;62294;48.554;10.202;2024-03-23T02:20:49;96800.69;;;6.24;100.00
73941;BME280;62294;48.554;10.202;2024-03-23T02:23:15;96813.72;;;6.48;100.00
73941;BME280;62294;48.554;10.202;2024-03-23T02:25:42;96795.91;;;6.50;100.00
73941;BME280;62294;48.554;10.202;2024-03-23T02:28:08;96834.38;;;6.75;100.00
73941;BME280;62294;48.554;10.202;2024-03-23T02:30:34;96854.03;;;6.95;100.00
73941;BME280;62294;48.554;10.202;2024-03-23T02:32:59;96855.59;;;7.04;100.00
73941;BME280;62294;48.554;10.202;2024-03-23T02:35:25;96871.59;;;7.26;100.00
73941;BME280;62294;48.554;10.202;2024-03-23T02:37:51;96876.75;;;7.42;100.00
73941;BME280;62294;48.554;10.202;2024-03-23T02:40:18;96882.97;;;7.49;100.00
73941;BME280;62294;48.554;10.202;2024-03-23T02:42:44;96873.88;;;7.66;100.00
73941;BME280;62294;48.554;10.202;2024-03-23T02:45:09;96861.09;;;7.69;100.00
73941;BME280;62294;48.554;10.202;2024-03-23T02:47:35;96870.22;;;7.67;100.00
73941;BME280;62294;48.554;10.202;2024-03-23T02:50:00;96874.88;;;7.65;100.00
73941;BME280;62294;48.554;10.202;2024-03-23T02:52:27;96887.41;;;7.71;100.00
73941;BME280;62294;48.554;10.202;2024-03-23T02:54:52;96881.47;;;7.83;100.00
73941;BME280;62294;48.554;10.202;2024-03-23T02:57:18;96882.19;;;7.92;100.00
73941;BME280;62294;48.554;10.202;2024-03-23T02:59:44;96883.41;;;8.04;100.00
73941;BME280;62294;48.554;10.202;2024-03-23T03:02:09;96877.75;;;8.07;100.00
73941;BME280;62294;48.554;10.202;2024-03-23T03:04:35;96866.88;;;8.02;100.00
73941;BME280;62294;48.554;10.202;2024-03-23T03:07:01;96861.66;;;7.94;100.00
73941;BME280;62294;48.554;10.202;2024-03-23T03:09:26;96857.66;;;7.83;100.00
73941;BME280;62294;48.554;10.202;2024-03-23T03:11:52;96880.72;;;7.89;100.00
73941;BME280;62294;48.554;10.202;2024-03-23T03:14:17;96885.13;;;7.97;100.00
73941;BME280;62294;48.554;10.202;2024-03-23T03:16:43;96890.41;;;7.97;100.00
73941;BME280;62294;48.554;10.202;2024-03-23T03:19:09;96902.38;;;7.93;100.00
73941;BME280;62294;48.554;10.202;2024-03-23T03:21:36;96907.31;;;7.96;100.00
73941;BME280;62294;48.554;10.202;2024-03-23T03:24:03;96926.84;;;7.95;100.00
73941;BME280;62294;48.554;10.202;2024-03-23T03:26:29;96936.78;;;7.93;100.00
73941;BME280;62294;48.554;10.202;2024-03-23T03:28:55;96956.50;;;7.91;100.00
73941;BME280;62294;48.554;10.202;2024-03-23T03:31:20;96981.59;;;7.95;100.00
73941;BME280;62294;48.554;10.202;2024-03-23T03:33:46;97004.25;;;7.97;100.00
73941;BME280;62294;48.554;10.202;2024-03-23T03:36:12;97017.97;;;8.01;100.00
73941;BME280;62294;48.554;10.202;2024-03-23T03:38:38;97034.47;;;8.03;100.00
73941;BME280;62294;48.554;10.202;2024-03-23T03:41:06;97066.69;;;7.92;100.00
73941;BME280;62294;48.554;10.202;2024-03-23T03:43:32;97115.75;;;7.94;100.00
73941;BME280;62294;48.554;10.202;2024-03-23T03:46:00;97158.25;;;8.01;100.00
73941;BME280;62294;48.554;10.202;2024-03-23T03:48:26;97182.56;;;8.04;100.00
73941;BME280;62294;48.554;10.202;2024-03-23T03:50:52;97194.28;;;8.10;100.00
73941;BME280;62294;48.554;10.202;2024-03-23T03:53:18;97207.38;;;8.03;100.00
73941;BME280;62294;48.554;10.202;2024-03-23T03:55:44;97220.56;;;8.11;100.00
73941;BME280;62294;48.554;10.202;2024-03-23T03:58:09;97232.53;;;8.07;100.00
73941;BME280;62294;48.554;10.202;2024-03-23T04:00:35;97244.94;;;7.99;100.00
73941;BME280;62294;48.554;10.202;2024-03-23T04:03:01;97255.66;;;7.82;100.00
73941;BME280;62294;48.554;10.202;2024-03-23T04:05:27;97266.44;;;7.73;100.00
73941;BME280;62294;48.554;10.202;2024-03-23T04:07:53;97296.06;;;7.68;100.00
73941;BME280;62294;48.554;10.202;2024-03-23T04:10:19;97305.50;;;7.63;100.00
73941;BME280;62294;48.554;10.202;2024-03-23T04:12:45;97323.69;;;7.66;100.00
73941;BME280;62294;48.554;10.202;2024-03-23T04:15:11;97341.88;;;7.61;100.00
73941;BME280;62294;48.554;10.202;2024-03-23T04:17:37;97350.28;;;7.64;100.00
73941;BME280;62294;48.554;10.202;2024-03-23T04:20:03;97370.47;;;7.65;100.00
73941;BME280;62294;48.554;10.202;2024-03-23T04:22:31;97369.81;;;7.55;100.00
73941;BME280;62294;48.554;10.202;2024-03-23T04:24:56;97380.56;;;7.54;100.00
73941;BME280;62294;48.554;10.202;2024-03-23T04:27:23;97396.28;;;7.55;100.00
73941;BME280;62294;48.554;10.202;2024-03-23T04:29:49;97398.78;;;7.57;100.00
73941;BME280;62294;48.554;10.202;2024-03-23T04:32:15;97400.09;;;7.53;100.00
73941;BME280;62294;48.554;10.202;2024-03-23T04:34:42;97369.53;;;7.34;100.00
73941;BME280;62294;48.554;10.202;2024-03-23T04:37:08;97349.72;;;7.06;100.00
73941;BME280;62294;48.554;10.202;2024-03-23T04:39:35;97344.25;;;6.83;100.00
73941;BME280;62294;48.554;10.202;2024-03-23T04:42:02;97353.50;;;6.79;100.00
73941;BME280;62294;48.554;10.202;2024-03-23T04:44:28;97364.75;;;6.81;100.00
73941;BME280;62294;48.554;10.202;2024-03-23T04:46:54;97367.22;;;6.83;100.00
73941;BME280;62294;48.554;10.202;2024-03-23T04:49:20;97372.50;;;6.91;100.00
73941;BME280;62294;48.554;10.202;2024-03-23T04:51:45;97366.25;;;7.00;100.00
73941;BME280;62294;48.554;10.202;2024-03-23T04:54:12;97351.69;;;6.96;100.00
73941;BME280;62294;48.554;10.202;2024-03-23T04:56:38;97340.31;;;6.95;100.00
73941;BME280;62294;48.554;10.202;2024-03-23T04:59:04;97332.38;;;6.95;100.00
73941;BME280;62294;48.554;10.202;2024-03-23T05:01:33;97316.19;;;6.90;100.00
73941;BME280;62294;48.554;10.202;2024-03-23T05:04:00;97305.63;;;6.90;100.00
73941;BME280;62294;48.554;10.202;2024-03-23T05:06:25;97293.06;;;6.92;100.00
73941;BME280;62294;48.554;10.202;2024-03-23T05:08:51;97282.16;;;6.95;100.00
73941;BME280;62294;48.554;10.202;2024-03-23T05:11:17;97277.50;;;7.05;100.00
73941;BME280;62294;48.554;10.202;2024-03-23T05:13:43;97267.09;;;7.12;100.00
73941;BME280;62294;48.554;10.202;2024-03-23T05:16:09;97244.44;;;7.18;100.00
73941;BME280;62294;48.554;10.202;2024-03-23T05:18:35;97234.53;;;7.28;100.00
73941;BME280;62294;48.554;10.202;2024-03-23T05:21:01;97195.19;;;7.25;100.00
73941;BME280;62294;48.554;10.202;2024-03-23T05:23:28;97191.84;;;7.31;100.00
73941;BME280;62294;48.554;10.202;2024-03-23T05:25:54;97162.25;;;7.35;100.00
73941;BME280;62294;48.554;10.202;2024-03-23T05:28:21;97150.34;;;7.39;100.00
73941;BME280;62294;48.554;10.202;2024-03-23T05:30:51;97150.34;;;7.39;100.00
73941;BME280;62294;48.554;10.202;2024-03-23T05:33:18;97142.88;;;7.43;100.00
73941;BME280;62294;48.554;10.202;2024-03-23T05:35:45;97142.19;;;7.49;100.00
73941;BME280;62294;48.554;10.202;2024-03-23T05:38:11;97141.50;;;7.55;100.00
73941;BME280;62294;48.554;10.202;2024-03-23T05:40:36;97135.16;;;7.64;100.00
73941;BME280;62294;48.554;10.202;2024-03-23T05:43:06;97121.97;;;7.56;100.00
73941;BME280;62294;48.554;10.202;2024-03-23T05:45:32;97105.78;;;7.51;100.00
73941;BME280;62294;48.554;10.202;2024-03-23T05:47:58;97092.81;;;7.41;100.00
73941;BME280;62294;48.554;10.202;2024-03-23T05:50:24;97095.63;;;7.40;100.00
73941;BME280;62294;48.554;10.202;2024-03-23T05:52:50;97081.63;;;7.31;100.00
73941;BME280;62294;48.554;10.202;2024-03-23T05:55:15;97087.09;;;7.30;100.00
73941;BME280;62294;48.554;10.202;2024-03-23T05:57:41;97100.78;;;7.33;100.00
73941;BME280;62294;48.554;10.202;2024-03-23T06:00:07;97103.66;;;7.46;100.00
73941;BME280;62294;48.554;10.202;2024-03-23T06:02:43;97106.75;;;7.58;100.00
73941;BME280;62294;48.554;10.202;2024-03-23T06:05:12;97116.13;;;7.68;100.00
73941;BME280;62294;48.554;10.202;2024-03-23T06:07:38;97112.97;;;7.73;100.00
73941;BME280;62294;48.554;10.202;2024-03-23T06:10:05;97117.50;;;7.87;100.00
73941;BME280;62294;48.554;10.202;2024-03-23T06:12:31;97102.00;;;7.99;100.00
73941;BME280;62294;48.554;10.202;2024-03-23T06:14:57;97110.09;;;8.05;100.00
73941;BME280;62294;48.554;10.202;2024-03-23T06:17:23;97102.59;;;8.09;100.00
73941;BME280;62294;48.554;10.202;2024-03-23T06:19:49;97092.13;;;8.15;100.00
73941;BME280;62294;48.554;10.202;2024-03-23T06:22:15;97124.63;;;8.32;100.00
73941;BME280;62294;48.554;10.202;2024-03-23T06:24:40;97186.59;;;8.45;100.00
73941;BME280;62294;48.554;10.202;2024-03-23T06:27:07;97203.44;;;8.67;100.00
73941;BME280;62294;48.554;10.202;2024-03-23T06:29:33;97241.94;;;9.00;100.00
73941;BME280;62294;48.554;10.202;2024-03-23T06:31:58;97278.91;;;9.31;100.00
73941;BME280;62294;48.554;10.202;2024-03-23T06:34:24;97293.25;;;9.22;100.00
73941;BME280;62294;48.554;10.202;2024-03-23T06:36:50;97320.53;;;8.93;100.00
73941;BME280;62294;48.554;10.202;2024-03-23T06:39:16;97357.41;;;8.57;100.00
73941;BME280;62294;48.554;10.202;2024-03-23T06:41:52;97378.97;;;8.46;100.00
73941;BME280;62294;48.554;10.202;2024-03-23T06:44:18;97389.00;;;8.28;100.00
73941;BME280;62294;48.554;10.202;2024-03-23T06:46:44;97401.78;;;8.17;100.00
73941;BME280;62294;48.554;10.202;2024-03-23T06:49:10;97454.38;;;8.20;100.00
73941;BME280;62294;48.554;10.202;2024-03-23T06:51:36;97492.63;;;8.17;100.00
73941;BME280;62294;48.554;10.202;2024-03-23T06:54:03;97511.50;;;8.22;100.00
73941;BME280;62294;48.554;10.202;2024-03-23T06:56:30;97550.56;;;8.20;100.00
73941;BME280;62294;48.554;10.202;2024-03-23T06:58:56;97584.00;;;8.13;100.00
73941;BME280;62294;48.554;10.202;2024-03-23T07:01:22;97635.66;;;8.09;100.00
73941;BME280;62294;48.554;10.202;2024-03-23T07:03:47;97676.34;;;8.08;100.00
73941;BME280;62294;48.554;10.202;2024-03-23T07:06:13;97696.03;;;8.06;100.00
73941;BME280;62294;48.554;10.202;2024-03-23T07:08:39;97724.50;;;8.04;100.00
73941;BME280;62294;48.554;10.202;2024-03-23T07:11:05;97728.63;;;7.98;100.00
73941;BME280;62294;48.554;10.202;2024-03-23T07:13:31;97736.06;;;7.95;100.00
73941;BME280;62294;48.554;10.202;2024-03-23T07:15:56;97753.13;;;8.00;100.00
73941;BME280;62294;48.554;10.202;2024-03-23T07:18:23;97756.78;;;8.07;100.00
73941;BME280;62294;48.554;10.202;2024-03-23T07:20:55;97746.50;;;8.04;100.00
73941;BME280;62294;48.554;10.202;2024-03-23T07:23:22;97777.00;;;8.16;100.00
73941;BME280;62294;48.554;10.202;2024-03-23T07:28:23;97748.19;;;8.05;100.00
73941;BME280;62294;48.554;10.202;2024-03-23T07:33:29;97637.94;;;7.88;100.00
73941;BME280;62294;48.554;10.202;2024-03-23T07:35:55;97626.19;;;7.99;100.00
73941;BME280;62294;48.554;10.202;2024-03-23T07:38:20;97578.38;;;7.92;100.00
73941;BME280;62294;48.554;10.202;2024-03-23T07:40:46;97512.88;;;7.86;100.00
73941;BME280;62294;48.554;10.202;2024-03-23T07:43:12;97444.03;;;7.86;100.00
73941;BME280;62294;48.554;10.202;2024-03-23T07:45:37;97389.97;;;7.72;100.00
73941;BME280;62294;48.554;10.202;2024-03-23T07:48:04;97376.91;;;7.79;100.00
73941;BME280;62294;48.554;10.202;2024-03-23T07:50:29;97317.50;;;7.81;100.00
73941;BME280;62294;48.554;10.202;2024-03-23T07:52:55;97276.63;;;7.84;100.00
73941;BME280;62294;48.554;10.202;2024-03-23T07:55:21;97231.78;;;7.91;100.00
73941;BME280;62294;48.554;10.202;2024-03-23T07:57:47;97228.84;;;8.08;100.00
73941;BME280;62294;48.554;10.202;2024-03-23T08:00:13;97161.03;;;7.76;100.00
73941;BME280;62294;48.554;10.202;2024-03-23T08:02:39;97094.84;;;7.62;100.00
73941;BME280;62294;48.554;10.202;2024-03-23T08:05:05;97108.25;;;7.83;100.00
73941;BME280;62294;48.554;10.202;2024-03-23T08:07:31;97087.56;;;7.86;100.00
73941;BME280;62294;48.554;10.202;2024-03-23T08:09:56;97061.19;;;7.93;100.00
73941;BME280;62294;48.554;10.202;2024-03-23T08:12:24;97028.94;;;7.89;100.00
73941;BME280;62294;48.554;10.202;2024-03-23T08:14:49;97001.94;;;7.79;100.00
73941;BME280;62294;48.554;10.202;2024-03-23T08:17:15;96996.03;;;7.69;100.00
73941;BME280;62294;48.554;10.202;2024-03-23T08:19:41;97009.63;;;7.89;100.00
73941;BME280;62294;48.554;10.202;2024-03-23T08:22:06;96971.94;;;7.64;100.00
73941;BME280;62294;48.554;10.202;2024-03-23T08:24:34;96984.63;;;7.69;100.00
73941;BME280;62294;48.554;10.202;2024-03-23T08:26:59;97000.81;;;8.11;100.00
73941;BME280;62294;48.554;10.202;2024-03-23T08:29:25;97020.50;;;8.46;100.00
73941;BME280;62294;48.554;10.202;2024-03-23T08:31:51;97038.34;;;8.67;100.00
73941;BME280;62294;48.554;10.202;2024-03-23T08:34:17;97022.06;;;8.55;100.00
73941;BME280;62294;48.554;10.202;2024-03-23T08:36:42;96987.34;;;8.35;100.00
73941;BME280;62294;48.554;10.202;2024-03-23T08:39:09;97006.72;;;8.50;100.00
73941;BME280;62294;48.554;10.202;2024-03-23T08:41:34;97047.00;;;8.61;100.00
73941;BME280;62294;48.554;10.202;2024-03-23T08:44:00;97146.53;;;9.36;100.00
73941;BME280;62294;48.554;10.202;2024-03-23T08:46:25;97173.22;;;9.49;100.00
73941;BME280;62294;48.554;10.202;2024-03-23T08:48:51;97177.09;;;9.32;100.00
73941;BME280;62294;48.554;10.202;2024-03-23T08:51:18;97193.47;;;9.21;100.00
73941;BME280;62294;48.554;10.202;2024-03-23T08:53:44;97224.84;;;9.17;100.00
73941;BME280;62294;48.554;10.202;2024-03-23T08:56:11;97268.03;;;9.26;100.00
73941;BME280;62294;48.554;10.202;2024-03-23T08:58:38;97252.63;;;8.70;100.00
73941;BME280;62294;48.554;10.202;2024-03-23T09:01:11;97285.78;;;8.66;100.00
73941;BME280;62294;48.554;10.202;2024-03-23T09:03:38;97349.38;;;9.11;100.00
73941;BME280;62294;48.554;10.202;2024-03-23T09:06:11;97392.00;;;9.32;100.00
73941;BME280;62294;48.554;10.202;2024-03-23T09:08:38;97386.28;;;8.98;100.00
73941;BME280;62294;48.554;10.202;2024-03-23T09:11:08;97406.41;;;8.62;100.00
73941;BME280;62294;48.554;10.202;2024-03-23T09:13:35;97446.94;;;8.31;100.00
73941;BME280;62294;48.554;10.202;2024-03-23T09:16:01;97466.56;;;7.82;100.00
73941;BME280;62294;48.554;10.202;2024-03-23T09:18:27;97500.63;;;7.69;100.00
73941;BME280;62294;48.554;10.202;2024-03-23T09:20:53;97550.25;;;7.75;100.00
73941;BME280;62294;48.554;10.202;2024-03-23T09:23:22;97592.25;;;7.70;100.00
73941;BME280;62294;48.554;10.202;2024-03-23T09:25:48;97647.19;;;7.92;100.00
73941;BME280;62294;48.554;10.202;2024-03-23T09:28:13;97680.31;;;8.04;100.00
73941;BME280;62294;48.554;10.202;2024-03-23T09:30:39;97724.56;;;8.36;100.00
73941;BME280;62294;48.554;10.202;2024-03-23T09:33:11;97750.94;;;8.62;100.00
73941;BME280;62294;48.554;10.202;2024-03-23T09:35:38;97777.44;;;9.10;100.00
73941;BME280;62294;48.554;10.202;2024-03-23T09:38:04;97792.22;;;9.67;100.00
73941;BME280;62294;48.554;10.202;2024-03-23T09:40:31;97799.47;;;10.20;100.00
73941;BME280;62294;48.554;10.202;2024-03-23T09:42:57;97792.81;;;10.55;100.00
73941;BME280;62294;48.554;10.202;2024-03-23T09:45:27;97795.94;;;11.18;100.00
73941;BME280;62294;48.554;10.202;2024-03-23T09:47:57;97724.63;;;10.62;100.00
73941;BME280;62294;48.554;10.202;2024-03-23T09:50:23;97639.06;;;9.29;100.00
73941;BME280;62294;48.554;10.202;2024-03-23T09:52:49;97631.19;;;9.13;100.00
73941;BME280;62294;48.554;10.202;2024-03-23T09:55:14;97618.84;;;8.81;100.00
73941;BME280;62294;48.554;10.202;2024-03-23T09:57:41;97643.25;;;9.62;100.00
73941;BME280;62294;48.554;10.202;2024-03-23T10:00:07;97658.06;;;9.79;100.00
73941;BME280;62294;48.554;10.202;2024-03-23T10:02:36;97660.41;;;9.74;100.00
73941;BME280;62294;48.554;10.202;2024-03-23T10:05:02;97619.00;;;8.88;100.00
73941;BME280;62294;48.554;10.202;2024-03-23T10:07:28;97611.09;;;8.80;100.00
73941;BME280;62294;48.554;10.202;2024-03-23T10:09:54;97599.56;;;8.48;100.00
73941;BME280;62294;48.554;10.202;2024-03-23T10:12:21;97586.78;;;8.52;100.00
73941;BME280;62294;48.554;10.202;2024-03-23T10:14:46;97614.47;;;9.12;100.00
73941;BME280;62294;48.554;10.202;2024-03-23T10:17:16;97593.50;;;8.79;100.00
73941;BME280;62294;48.554;10.202;2024-03-23T10:19:48;97632.28;;;9.35;100.00
73941;BME280;62294;48.554;10.202;2024-03-23T10:22:26;97632.03;;;10.06;100.00
73941;BME280;62294;48.554;10.202;2024-03-23T10:24:51;97602.50;;;10.23;100.00
73941;BME280;62294;48.554;10.202;2024-03-23T10:27:18;97611.28;;;10.61;100.00
73941;BME280;62294;48.554;10.202;2024-03-23T10:29:47;97537.47;;;9.51;100.00
73941;BME280;62294;48.554;10.202;2024-03-23T10:32:15;97527.28;;;9.09;100.00
73941;BME280;62294;48.554;10.202;2024-03-23T10:34:41;97568.75;;;9.86;100.00
73941;BME280;62294;48.554;10.202;2024-03-23T10:37:07;97585.25;;;10.42;100.00
73941;BME280;62294;48.554;10.202;2024-03-23T10:39:37;97573.56;;;10.06;100.00
73941;BME280;62294;48.554;10.202;2024-03-23T10:42:08;97650.50;;;11.25;100.00
73941;BME280;62294;48.554;10.202;2024-03-23T10:44:36;97596.78;;;10.12;100.00
73941;BME280;62294;48.554;10.202;2024-03-23T10:47:03;97624.56;;;10.46;100.00
73941;BME280;62294;48.554;10.202;2024-03-23T10:49:30;97612.38;;;10.15;100.00
73941;BME280;62294;48.554;10.202;2024-03-23T10:52:04;97658.75;;;10.72;100.00
73941;BME280;62294;48.554;10.202;2024-03-23T10:54:32;97661.88;;;10.90;100.00
73941;BME280;62294;48.554;10.202;2024-03-23T10:57:09;97681.88;;;11.30;100.00
73941;BME280;62294;48.554;10.202;2024-03-23T10:59:40;97641.06;;;10.42;100.00
73941;BME280;62294;48.554;10.202;2024-03-23T11:02:06;97622.34;;;9.90;100.00
73941;BME280;62294;48.554;10.202;2024-03-23T11:04:35;97595.59;;;9.38;100.00
73941;BME280;62294;48.554;10.202;2024-03-23T11:09:50;97597.53;;;9.97;100.00
73941;BME280;62294;48.554;10.202;2024-03-23T11:17:26;97624.16;;;10.35;100.00
73941;BME280;62294;48.554;10.202;2024-03-23T11:20:05;97614.41;;;9.82;100.00
73941;BME280;62294;48.554;10.202;2024-03-23T11:22:38;97639.19;;;10.28;100.00
73941;BME280;62294;48.554;10.202;2024-03-23T11:25:23;97633.00;;;10.50;100.00
73941;BME280;62294;48.554;10.202;2024-03-23T11:27:51;97615.47;;;10.41;100.00
73941;BME280;62294;48.554;10.202;2024-03-23T11:30:19;97626.19;;;10.70;100.00
73941;BME280;62294;48.554;10.202;2024-03-23T11:32:46;97658.53;;;11.90;100.00
73941;BME280;62294;48.554;10.202;2024-03-23T11:35:32;97600.09;;;12.31;100.00
73941;BME280;62294;48.554;10.202;2024-03-23T11:40:32;97463.06;;;10.63;100.00
73941;BME280;62294;48.554;10.202;2024-03-23T11:42:59;97459.22;;;10.22;100.00
73941;BME280;62294;48.554;10.202;2024-03-23T11:45:25;97462.22;;;10.19;100.00
73941;BME280;62294;48.554;10.202;2024-03-23T11:48:10;97450.91;;;10.02;100.00
73941;BME280;62294;48.554;10.202;2024-03-23T11:50:41;97444.50;;;9.96;100.00
73941;BME280;62294;48.554;10.202;2024-03-23T11:58:10;97442.03;;;9.58;100.00
73941;BME280;62294;48.554;10.202;2024-03-23T12:00:37;97417.28;;;9.20;100.00
73941;BME280;62294;48.554;10.202;2024-03-23T12:03:03;97433.84;;;9.67;100.00
73941;BME280;62294;48.554;10.202;2024-03-23T12:05:29;97461.69;;;9.86;100.00
73941;BME280;62294;48.554;10.202;2024-03-23T12:08:15;97452.59;;;9.43;100.00
73941;BME280;62294;48.554;10.202;2024-03-23T12:10:40;97477.88;;;9.54;100.00
73941;BME280;62294;48.554;10.202;2024-03-23T12:13:06;97532.06;;;10.05;100.00
73941;BME280;62294;48.554;10.202;2024-03-23T12:15:31;97550.88;;;9.80;100.00
73941;BME280;62294;48.554;10.202;2024-03-23T12:18:08;97578.25;;;8.89;100.00
73941;BME280;62294;48.554;10.202;2024-03-23T12:20:33;97601.22;;;7.93;100.00
73941;BME280;62294;48.554;10.202;2024-03-23T12:23:10;97649.78;;;7.52;100.00
73941;BME280;62294;48.554;10.202;2024-03-23T12:25:40;97695.75;;;6.91;100.00
73941;BME280;62294;48.554;10.202;2024-03-23T12:28:07;97720.03;;;6.43;100.00
73941;BME280;62294;48.554;10.202;2024-03-23T12:30:39;97752.19;;;6.57;100.00
73941;BME280;62294;48.554;10.202;2024-03-23T12:33:04;97782.72;;;6.24;100.00
73941;BME280;62294;48.554;10.202;2024-03-23T12:35:30;97863.69;;;6.33;100.00
73941;BME280;62294;48.554;10.202;2024-03-23T12:37:56;97978.00;;;6.97;100.00
73941;BME280;62294;48.554;10.202;2024-03-23T12:40:22;98042.53;;;7.40;100.00
73941;BME280;62294;48.554;10.202;2024-03-23T12:42:47;98013.81;;;7.09;100.00
73941;BME280;62294;48.554;10.202;2024-03-23T12:45:13;98025.59;;;7.33;100.00
73941;BME280;62294;48.554;10.202;2024-03-23T12:47:39;98026.22;;;7.62;100.00
73941;BME280;62294;48.554;10.202;2024-03-23T12:50:05;98018.16;;;7.71;100.00
73941;BME280;62294;48.554;10.202;2024-03-23T12:52:35;97951.25;;;7.36;100.00
73941;BME280;62294;48.554;10.202;2024-03-23T12:55:00;97876.88;;;7.39;100.00
73941;BME280;62294;48.554;10.202;2024-03-23T12:57:26;97868.59;;;7.93;100.00
73941;BME280;62294;48.554;10.202;2024-03-23T12:59:52;97834.19;;;8.01;100.00
73941;BME280;62294;48.554;10.202;2024-03-23T13:02:22;97789.00;;;7.95;100.00
73941;BME280;62294;48.554;10.202;2024-03-23T13:04:54;97750.69;;;8.23;100.00
73941;BME280;62294;48.554;10.202;2024-03-23T13:07:21;97721.75;;;8.53;100.00
73941;BME280;62294;48.554;10.202;2024-03-23T13:09:50;97665.78;;;8.40;100.00
73941;BME280;62294;48.554;10.202;2024-03-23T13:12:16;97647.06;;;8.66;100.00
73941;BME280;62294;48.554;10.202;2024-03-23T13:14:42;97613.13;;;8.13;100.00
73941;BME280;62294;48.554;10.202;2024-03-23T13:17:08;97589.78;;;8.25;100.00
73941;BME280;62294;48.554;10.202;2024-03-23T13:19:34;97593.94;;;8.43;100.00
73941;BME280;62294;48.554;10.202;2024-03-23T13:22:00;97577.69;;;8.54;100.00
73941;BME280;62294;48.554;10.202;2024-03-23T13:24:27;97561.53;;;8.80;100.00
73941;BME280;62294;48.554;10.202;2024-03-23T13:26:54;97524.06;;;8.36;100.00
73941;BME280;62294;48.554;10.202;2024-03-23T13:29:20;97535.13;;;8.95;100.00
73941;BME280;62294;48.554;10.202;2024-03-23T13:31:47;97505.34;;;8.22;100.00
73941;BME280;62294;48.554;10.202;2024-03-23T13:34:13;97487.97;;;8.19;100.00
73941;BME280;62294;48.554;10.202;2024-03-23T13:36:41;97467.50;;;7.97;100.00
73941;BME280;62294;48.554;10.202;2024-03-23T13:39:07;97513.44;;;8.52;100.00
73941;BME280;62294;48.554;10.202;2024-03-23T13:41:40;97491.63;;;8.10;100.00
73941;BME280;62294;48.554;10.202;2024-03-23T13:44:06;97509.47;;;8.48;100.00
73941;BME280;62294;48.554;10.202;2024-03-23T13:46:33;97482.06;;;7.85;100.00
73941;BME280;62294;48.554;10.202;2024-03-23T13:48:59;97486.72;;;7.83;100.00
73941;BME280;62294;48.554;10.202;2024-03-23T13:51:25;97485.88;;;8.07;100.00
73941;BME280;62294;48.554;10.202;2024-03-23T13:53:56;97494.63;;;8.15;100.00
73941;BME280;62294;48.554;10.202;2024-03-23T13:56:25;97490.66;;;8.27;100.00
73941;BME280;62294;48.554;10.202;2024-03-23T13:58:50;97507.56;;;8.65;100.00